sensor_id;sensor_type;location;lat;lon;timestamp;P1;durP1;ratioP1;P2;durP2;ratioP2
13868;SDS011;7004;48.206;16.402;2023-07-02T00:02:13;3.37;;;2.83;;
13868;SDS011;7004;48.206;16.402;2023-07-02T00:04:41;4.03;;;2.90;;
13868;SDS011;7004;48.206;16.402;2023-07-02T00:07:08;3.80;;;2.70;;
13868;SDS011;7004;48.206;16.402;2023-07-02T00:09:34;3.77;;;2.93;;
13868;SDS011;7004;48.206;16.402;2023-07-02T00:12:00;3.03;;;2.70;;
13868;SDS011;7004;48.206;16.402;2023-07-02T00:14:26;3.10;;;2.80;;
13868;SDS011;7004;48.206;16.402;2023-07-02T00:16:52;3.20;;;2.90;;
13868;SDS011;7004;48.206;16.402;2023-07-02T00:19:19;2.80;;;2.40;;
13868;SDS011;7004;48.206;16.402;2023-07-02T00:21:45;6.93;;;2.87;;
13868;SDS011;7004;48.206;16.402;2023-07-02T00:24:11;4.57;;;2.97;;
13868;SDS011;7004;48.206;16.402;2023-07-02T00:26:37;2.50;;;2.30;;
13868;SDS011;7004;48.206;16.402;2023-07-02T00:29:05;3.10;;;2.60;;
13868;SDS011;7004;48.206;16.402;2023-07-02T00:31:33;3.33;;;3.03;;
13868;SDS011;7004;48.206;16.402;2023-07-02T00:33:59;3.00;;;2.67;;
13868;SDS011;7004;48.206;16.402;2023-07-02T00:36:26;3.10;;;2.80;;
13868;SDS011;7004;48.206;16.402;2023-07-02T00:38:53;2.63;;;2.43;;
13868;SDS011;7004;48.206;16.402;2023-07-02T00:41:19;3.80;;;3.10;;
13868;SDS011;7004;48.206;16.402;2023-07-02T00:43:46;4.50;;;2.70;;
13868;SDS011;7004;48.206;16.402;2023-07-02T00:46:18;2.77;;;2.50;;
13868;SDS011;7004;48.206;16.402;2023-07-02T00:48:47;3.70;;;2.80;;
13868;SDS011;7004;48.206;16.402;2023-07-02T00:51:15;4.43;;;2.90;;
13868;SDS011;7004;48.206;16.402;2023-07-02T00:53:45;3.57;;;2.80;;
13868;SDS011;7004;48.206;16.402;2023-07-02T00:56:13;3.03;;;2.50;;
13868;SDS011;7004;48.206;16.402;2023-07-02T00:58:44;2.90;;;2.70;;
13868;SDS011;7004;48.206;16.402;2023-07-02T01:01:15;3.73;;;3.00;;
13868;SDS011;7004;48.206;16.402;2023-07-02T01:04:17;3.07;;;2.77;;
13868;SDS011;7004;48.206;16.402;2023-07-02T01:06:43;4.17;;;2.93;;
13868;SDS011;7004;48.206;16.402;2023-07-02T01:09:11;4.67;;;3.00;;
13868;SDS011;7004;48.206;16.402;2023-07-02T01:11:44;3.20;;;2.40;;
13868;SDS011;7004;48.206;16.402;2023-07-02T01:14:22;4.00;;;2.50;;
13868;SDS011;7004;48.206;16.402;2023-07-02T01:16:52;4.40;;;2.40;;
13868;SDS011;7004;48.206;16.402;2023-07-02T01:22:20;2.63;;;2.40;;
13868;SDS011;7004;48.206;16.402;2023-07-02T01:24:49;2.60;;;2.33;;
13868;SDS011;7004;48.206;16.402;2023-07-02T01:27:17;3.87;;;2.67;;
13868;SDS011;7004;48.206;16.402;2023-07-02T01:29:44;2.63;;;2.43;;
13868;SDS011;7004;48.206;16.402;2023-07-02T01:32:13;2.87;;;2.50;;
13868;SDS011;7004;48.206;16.402;2023-07-02T01:34:40;3.07;;;2.70;;
13868;SDS011;7004;48.206;16.402;2023-07-02T01:37:09;2.90;;;2.60;;
13868;SDS011;7004;48.206;16.402;2023-07-02T01:39:35;2.90;;;2.60;;
13868;SDS011;7004;48.206;16.402;2023-07-02T01:42:11;3.10;;;2.50;;
13868;SDS011;7004;48.206;16.402;2023-07-02T01:44:43;2.73;;;2.53;;
13868;SDS011;7004;48.206;16.402;2023-07-02T01:47:11;3.30;;;2.63;;
13868;SDS011;7004;48.206;16.402;2023-07-02T01:49:40;3.00;;;2.60;;
13868;SDS011;7004;48.206;16.402;2023-07-02T01:52:06;3.50;;;2.83;;
13868;SDS011;7004;48.206;16.402;2023-07-02T01:54:33;4.17;;;2.70;;
13868;SDS011;7004;48.206;16.402;2023-07-02T01:57:00;3.13;;;2.57;;
13868;SDS011;7004;48.206;16.402;2023-07-02T01:59:27;2.70;;;2.47;;
13868;SDS011;7004;48.206;16.402;2023-07-02T02:01:53;2.77;;;2.47;;
13868;SDS011;7004;48.206;16.402;2023-07-02T02:04:19;2.47;;;2.27;;
13868;SDS011;7004;48.206;16.402;2023-07-02T02:06:46;2.63;;;2.43;;
13868;SDS011;7004;48.206;16.402;2023-07-02T02:09:12;3.73;;;2.30;;
13868;SDS011;7004;48.206;16.402;2023-07-02T02:11:39;3.50;;;2.93;;
13868;SDS011;7004;48.206;16.402;2023-07-02T02:14:13;2.63;;;2.43;;
13868;SDS011;7004;48.206;16.402;2023-07-02T02:16:39;3.63;;;2.67;;
13868;SDS011;7004;48.206;16.402;2023-07-02T02:19:06;2.50;;;2.30;;
13868;SDS011;7004;48.206;16.402;2023-07-02T02:21:32;3.40;;;2.60;;
13868;SDS011;7004;48.206;16.402;2023-07-02T02:23:59;2.50;;;2.23;;
13868;SDS011;7004;48.206;16.402;2023-07-02T02:26:25;3.63;;;2.67;;
13868;SDS011;7004;48.206;16.402;2023-07-02T02:28:51;3.10;;;2.80;;
13868;SDS011;7004;48.206;16.402;2023-07-02T02:31:19;3.80;;;2.63;;
13868;SDS011;7004;48.206;16.402;2023-07-02T02:33:46;3.33;;;2.63;;
13868;SDS011;7004;48.206;16.402;2023-07-02T02:36:12;2.67;;;2.47;;
13868;SDS011;7004;48.206;16.402;2023-07-02T02:38:39;3.43;;;3.13;;
13868;SDS011;7004;48.206;16.402;2023-07-02T02:41:05;2.97;;;2.57;;
13868;SDS011;7004;48.206;16.402;2023-07-02T02:43:34;3.00;;;2.70;;
13868;SDS011;7004;48.206;16.402;2023-07-02T02:46:00;3.30;;;2.67;;
13868;SDS011;7004;48.206;16.402;2023-07-02T02:48:26;2.60;;;2.40;;
13868;SDS011;7004;48.206;16.402;2023-07-02T02:50:52;3.30;;;2.90;;
13868;SDS011;7004;48.206;16.402;2023-07-02T02:53:19;3.50;;;2.57;;
13868;SDS011;7004;48.206;16.402;2023-07-02T02:55:45;3.70;;;3.00;;
13868;SDS011;7004;48.206;16.402;2023-07-02T02:58:11;3.17;;;2.80;;
13868;SDS011;7004;48.206;16.402;2023-07-02T03:00:37;3.13;;;2.83;;
13868;SDS011;7004;48.206;16.402;2023-07-02T03:03:07;2.93;;;2.60;;
13868;SDS011;7004;48.206;16.402;2023-07-02T03:05:34;3.13;;;2.80;;
13868;SDS011;7004;48.206;16.402;2023-07-02T03:08:00;3.10;;;2.90;;
13868;SDS011;7004;48.206;16.402;2023-07-02T03:10:27;5.33;;;3.13;;
13868;SDS011;7004;48.206;16.402;2023-07-02T03:12:53;3.10;;;2.80;;
13868;SDS011;7004;48.206;16.402;2023-07-02T03:15:19;3.33;;;3.03;;
13868;SDS011;7004;48.206;16.402;2023-07-02T03:17:46;3.97;;;3.20;;
13868;SDS011;7004;48.206;16.402;2023-07-02T03:20:12;3.17;;;2.70;;
13868;SDS011;7004;48.206;16.402;2023-07-02T03:22:38;2.73;;;2.50;;
13868;SDS011;7004;48.206;16.402;2023-07-02T03:25:04;3.60;;;3.30;;
13868;SDS011;7004;48.206;16.402;2023-07-02T03:27:31;3.70;;;2.53;;
13868;SDS011;7004;48.206;16.402;2023-07-02T03:29:57;3.67;;;3.03;;
13868;SDS011;7004;48.206;16.402;2023-07-02T03:32:23;3.33;;;3.00;;
13868;SDS011;7004;48.206;16.402;2023-07-02T03:34:49;3.87;;;3.10;;
13868;SDS011;7004;48.206;16.402;2023-07-02T03:37:16;3.40;;;2.90;;
13868;SDS011;7004;48.206;16.402;2023-07-02T03:39:43;3.53;;;3.07;;
13868;SDS011;7004;48.206;16.402;2023-07-02T03:42:09;3.10;;;2.80;;
13868;SDS011;7004;48.206;16.402;2023-07-02T03:44:35;3.90;;;2.90;;
13868;SDS011;7004;48.206;16.402;2023-07-02T03:47:01;3.50;;;3.20;;
13868;SDS011;7004;48.206;16.402;2023-07-02T03:49:27;3.23;;;2.93;;
13868;SDS011;7004;48.206;16.402;2023-07-02T03:51:54;3.17;;;2.87;;
13868;SDS011;7004;48.206;16.402;2023-07-02T03:54:20;3.27;;;2.80;;
13868;SDS011;7004;48.206;16.402;2023-07-02T03:56:46;3.50;;;2.73;;
13868;SDS011;7004;48.206;16.402;2023-07-02T03:59:12;4.80;;;3.30;;
13868;SDS011;7004;48.206;16.402;2023-07-02T04:01:39;3.30;;;2.70;;
13868;SDS011;7004;48.206;16.402;2023-07-02T04:04:05;3.17;;;2.87;;
13868;SDS011;7004;48.206;16.402;2023-07-02T04:06:32;4.53;;;3.00;;
13868;SDS011;7004;48.206;16.402;2023-07-02T04:08:59;4.33;;;2.90;;
13868;SDS011;7004;48.206;16.402;2023-07-02T04:11:25;4.40;;;3.33;;
13868;SDS011;7004;48.206;16.402;2023-07-02T04:13:51;3.27;;;2.97;;
13868;SDS011;7004;48.206;16.402;2023-07-02T04:16:17;4.23;;;3.10;;
13868;SDS011;7004;48.206;16.402;2023-07-02T04:18:43;4.63;;;2.90;;
13868;SDS011;7004;48.206;16.402;2023-07-02T04:21:09;3.20;;;2.80;;
13868;SDS011;7004;48.206;16.402;2023-07-02T04:23:35;3.13;;;2.83;;
13868;SDS011;7004;48.206;16.402;2023-07-02T04:26:02;4.17;;;3.27;;
13868;SDS011;7004;48.206;16.402;2023-07-02T04:28:28;4.67;;;2.83;;
13868;SDS011;7004;48.206;16.402;2023-07-02T04:30:54;4.57;;;3.30;;
13868;SDS011;7004;48.206;16.402;2023-07-02T04:33:20;3.87;;;3.10;;
13868;SDS011;7004;48.206;16.402;2023-07-02T04:35:46;6.07;;;3.13;;
13868;SDS011;7004;48.206;16.402;2023-07-02T04:38:12;5.50;;;3.33;;
13868;SDS011;7004;48.206;16.402;2023-07-02T04:40:38;3.60;;;3.20;;
13868;SDS011;7004;48.206;16.402;2023-07-02T04:43:04;3.40;;;3.10;;
13868;SDS011;7004;48.206;16.402;2023-07-02T04:45:32;3.20;;;2.90;;
13868;SDS011;7004;48.206;16.402;2023-07-02T04:48:02;3.87;;;3.00;;
13868;SDS011;7004;48.206;16.402;2023-07-02T04:50:29;3.13;;;2.80;;
13868;SDS011;7004;48.206;16.402;2023-07-02T04:52:55;3.97;;;3.00;;
13868;SDS011;7004;48.206;16.402;2023-07-02T04:55:22;3.87;;;3.07;;
13868;SDS011;7004;48.206;16.402;2023-07-02T04:57:48;3.20;;;2.80;;
13868;SDS011;7004;48.206;16.402;2023-07-02T05:00:14;3.30;;;2.83;;
13868;SDS011;7004;48.206;16.402;2023-07-02T05:02:41;3.27;;;2.70;;
13868;SDS011;7004;48.206;16.402;2023-07-02T05:05:07;2.73;;;2.53;;
13868;SDS011;7004;48.206;16.402;2023-07-02T05:07:34;2.83;;;2.60;;
13868;SDS011;7004;48.206;16.402;2023-07-02T05:10:00;2.93;;;2.50;;
13868;SDS011;7004;48.206;16.402;2023-07-02T05:12:26;3.37;;;2.60;;
13868;SDS011;7004;48.206;16.402;2023-07-02T05:14:52;3.13;;;2.40;;
13868;SDS011;7004;48.206;16.402;2023-07-02T05:17:18;3.30;;;2.30;;
13868;SDS011;7004;48.206;16.402;2023-07-02T05:19:44;3.53;;;2.20;;
13868;SDS011;7004;48.206;16.402;2023-07-02T05:22:10;2.63;;;2.17;;
13868;SDS011;7004;48.206;16.402;2023-07-02T05:24:36;2.57;;;2.13;;
13868;SDS011;7004;48.206;16.402;2023-07-02T05:27:03;2.50;;;2.30;;
13868;SDS011;7004;48.206;16.402;2023-07-02T05:29:30;3.30;;;2.10;;
13868;SDS011;7004;48.206;16.402;2023-07-02T05:31:56;2.50;;;2.30;;
13868;SDS011;7004;48.206;16.402;2023-07-02T05:34:22;2.40;;;2.20;;
13868;SDS011;7004;48.206;16.402;2023-07-02T05:36:48;2.30;;;2.10;;
13868;SDS011;7004;48.206;16.402;2023-07-02T05:39:14;2.83;;;2.47;;
13868;SDS011;7004;48.206;16.402;2023-07-02T05:41:40;2.40;;;2.20;;
13868;SDS011;7004;48.206;16.402;2023-07-02T05:44:09;2.47;;;2.27;;
13868;SDS011;7004;48.206;16.402;2023-07-02T05:46:35;2.70;;;2.40;;
13868;SDS011;7004;48.206;16.402;2023-07-02T05:49:01;2.77;;;2.50;;
13868;SDS011;7004;48.206;16.402;2023-07-02T05:51:27;2.60;;;2.40;;
13868;SDS011;7004;48.206;16.402;2023-07-02T05:53:53;2.47;;;2.27;;
13868;SDS011;7004;48.206;16.402;2023-07-02T05:56:19;3.23;;;2.50;;
13868;SDS011;7004;48.206;16.402;2023-07-02T05:58:45;2.97;;;2.50;;
13868;SDS011;7004;48.206;16.402;2023-07-02T06:01:12;3.10;;;2.80;;
13868;SDS011;7004;48.206;16.402;2023-07-02T06:03:38;4.07;;;2.77;;
13868;SDS011;7004;48.206;16.402;2023-07-02T06:06:04;4.90;;;3.00;;
13868;SDS011;7004;48.206;16.402;2023-07-02T06:08:30;3.00;;;2.73;;
13868;SDS011;7004;48.206;16.402;2023-07-02T06:10:56;3.30;;;3.00;;
13868;SDS011;7004;48.206;16.402;2023-07-02T06:13:23;3.37;;;2.77;;
13868;SDS011;7004;48.206;16.402;2023-07-02T06:15:49;3.67;;;3.23;;
13868;SDS011;7004;48.206;16.402;2023-07-02T06:18:15;3.23;;;2.80;;
13868;SDS011;7004;48.206;16.402;2023-07-02T06:20:42;3.20;;;2.90;;
13868;SDS011;7004;48.206;16.402;2023-07-02T06:23:09;3.90;;;3.27;;
13868;SDS011;7004;48.206;16.402;2023-07-02T06:25:35;3.73;;;3.07;;
13868;SDS011;7004;48.206;16.402;2023-07-02T06:28:01;3.43;;;2.93;;
13868;SDS011;7004;48.206;16.402;2023-07-02T06:30:27;3.23;;;2.80;;
13868;SDS011;7004;48.206;16.402;2023-07-02T06:32:53;4.17;;;3.10;;
13868;SDS011;7004;48.206;16.402;2023-07-02T06:35:20;3.23;;;2.93;;
13868;SDS011;7004;48.206;16.402;2023-07-02T06:37:46;3.20;;;2.90;;
13868;SDS011;7004;48.206;16.402;2023-07-02T06:40:13;3.47;;;3.17;;
13868;SDS011;7004;48.206;16.402;2023-07-02T06:42:40;3.30;;;3.10;;
13868;SDS011;7004;48.206;16.402;2023-07-02T06:45:06;2.90;;;2.70;;
13868;SDS011;7004;48.206;16.402;2023-07-02T06:47:33;3.17;;;2.80;;
13868;SDS011;7004;48.206;16.402;2023-07-02T06:49:59;3.37;;;2.87;;
13868;SDS011;7004;48.206;16.402;2023-07-02T06:52:25;5.50;;;3.40;;
13868;SDS011;7004;48.206;16.402;2023-07-02T06:54:51;3.10;;;2.80;;
13868;SDS011;7004;48.206;16.402;2023-07-02T06:57:17;2.83;;;2.57;;
13868;SDS011;7004;48.206;16.402;2023-07-02T06:59:44;3.20;;;2.90;;
13868;SDS011;7004;48.206;16.402;2023-07-02T07:02:10;3.30;;;2.90;;
13868;SDS011;7004;48.206;16.402;2023-07-02T07:04:36;4.87;;;2.83;;
13868;SDS011;7004;48.206;16.402;2023-07-02T07:07:02;3.43;;;2.83;;
13868;SDS011;7004;48.206;16.402;2023-07-02T07:09:29;2.67;;;2.47;;
13868;SDS011;7004;48.206;16.402;2023-07-02T07:11:55;3.80;;;2.60;;
13868;SDS011;7004;48.206;16.402;2023-07-02T07:14:21;2.93;;;2.73;;
13868;SDS011;7004;48.206;16.402;2023-07-02T07:16:48;2.60;;;2.40;;
13868;SDS011;7004;48.206;16.402;2023-07-02T07:19:14;2.87;;;2.60;;
13868;SDS011;7004;48.206;16.402;2023-07-02T07:21:41;3.73;;;2.50;;
13868;SDS011;7004;48.206;16.402;2023-07-02T07:24:08;2.73;;;2.53;;
13868;SDS011;7004;48.206;16.402;2023-07-02T07:26:35;3.57;;;2.63;;
13868;SDS011;7004;48.206;16.402;2023-07-02T07:29:01;3.03;;;2.73;;
13868;SDS011;7004;48.206;16.402;2023-07-02T07:31:29;2.57;;;2.37;;
13868;SDS011;7004;48.206;16.402;2023-07-02T07:33:55;3.03;;;2.70;;
13868;SDS011;7004;48.206;16.402;2023-07-02T07:36:21;3.00;;;2.50;;
13868;SDS011;7004;48.206;16.402;2023-07-02T07:38:47;3.60;;;2.73;;
13868;SDS011;7004;48.206;16.402;2023-07-02T07:41:13;2.70;;;2.50;;
13868;SDS011;7004;48.206;16.402;2023-07-02T07:43:39;2.80;;;2.60;;
13868;SDS011;7004;48.206;16.402;2023-07-02T07:46:05;2.70;;;2.33;;
13868;SDS011;7004;48.206;16.402;2023-07-02T07:48:31;2.67;;;2.47;;
13868;SDS011;7004;48.206;16.402;2023-07-02T07:50:57;3.23;;;2.30;;
13868;SDS011;7004;48.206;16.402;2023-07-02T07:53:23;2.63;;;2.43;;
13868;SDS011;7004;48.206;16.402;2023-07-02T07:55:50;3.27;;;3.03;;
13868;SDS011;7004;48.206;16.402;2023-07-02T07:58:16;4.17;;;2.73;;
13868;SDS011;7004;48.206;16.402;2023-07-02T08:00:42;3.20;;;2.90;;
13868;SDS011;7004;48.206;16.402;2023-07-02T08:03:09;3.20;;;2.90;;
13868;SDS011;7004;48.206;16.402;2023-07-02T08:05:36;3.20;;;2.90;;
13868;SDS011;7004;48.206;16.402;2023-07-02T08:08:02;3.27;;;2.80;;
13868;SDS011;7004;48.206;16.402;2023-07-02T08:10:28;3.40;;;3.10;;
13868;SDS011;7004;48.206;16.402;2023-07-02T08:12:55;3.57;;;3.20;;
13868;SDS011;7004;48.206;16.402;2023-07-02T08:15:21;3.50;;;3.20;;
13868;SDS011;7004;48.206;16.402;2023-07-02T08:17:48;3.03;;;2.73;;
13868;SDS011;7004;48.206;16.402;2023-07-02T08:20:14;3.57;;;2.90;;
13868;SDS011;7004;48.206;16.402;2023-07-02T08:22:40;3.30;;;3.07;;
13868;SDS011;7004;48.206;16.402;2023-07-02T08:25:06;3.20;;;3.00;;
13868;SDS011;7004;48.206;16.402;2023-07-02T08:27:33;3.40;;;3.10;;
13868;SDS011;7004;48.206;16.402;2023-07-02T08:30:00;3.47;;;3.17;;
13868;SDS011;7004;48.206;16.402;2023-07-02T08:32:26;2.90;;;2.70;;
13868;SDS011;7004;48.206;16.402;2023-07-02T08:34:52;3.00;;;2.80;;
13868;SDS011;7004;48.206;16.402;2023-07-02T08:37:19;3.70;;;3.40;;
13868;SDS011;7004;48.206;16.402;2023-07-02T08:39:48;3.17;;;2.97;;
13868;SDS011;7004;48.206;16.402;2023-07-02T08:42:16;3.63;;;3.33;;
13868;SDS011;7004;48.206;16.402;2023-07-02T08:44:44;3.00;;;2.80;;
13868;SDS011;7004;48.206;16.402;2023-07-02T08:47:12;3.97;;;2.87;;
13868;SDS011;7004;48.206;16.402;2023-07-02T08:49:39;3.30;;;3.00;;
13868;SDS011;7004;48.206;16.402;2023-07-02T08:52:06;3.00;;;2.80;;
13868;SDS011;7004;48.206;16.402;2023-07-02T08:54:33;5.40;;;2.90;;
13868;SDS011;7004;48.206;16.402;2023-07-02T08:56:59;3.53;;;3.20;;
13868;SDS011;7004;48.206;16.402;2023-07-02T08:59:30;3.83;;;3.53;;
13868;SDS011;7004;48.206;16.402;2023-07-02T09:01:57;3.33;;;3.03;;
13868;SDS011;7004;48.206;16.402;2023-07-02T09:04:24;3.70;;;2.93;;
13868;SDS011;7004;48.206;16.402;2023-07-02T09:07:12;3.57;;;3.27;;
13868;SDS011;7004;48.206;16.402;2023-07-02T09:09:47;3.60;;;3.30;;
13868;SDS011;7004;48.206;16.402;2023-07-02T09:12:28;3.47;;;3.17;;
13868;SDS011;7004;48.206;16.402;2023-07-02T09:15:03;3.33;;;3.10;;
13868;SDS011;7004;48.206;16.402;2023-07-02T09:17:34;3.43;;;3.13;;
13868;SDS011;7004;48.206;16.402;2023-07-02T09:20:03;3.63;;;3.33;;
13868;SDS011;7004;48.206;16.402;2023-07-02T09:22:34;3.30;;;3.00;;
13868;SDS011;7004;48.206;16.402;2023-07-02T09:25:01;3.40;;;3.10;;
13868;SDS011;7004;48.206;16.402;2023-07-02T09:27:38;3.43;;;3.13;;
13868;SDS011;7004;48.206;16.402;2023-07-02T09:32:40;3.23;;;2.93;;
13868;SDS011;7004;48.206;16.402;2023-07-02T09:35:10;3.07;;;2.87;;
13868;SDS011;7004;48.206;16.402;2023-07-02T09:37:38;5.43;;;3.10;;
13868;SDS011;7004;48.206;16.402;2023-07-02T09:40:07;3.20;;;2.90;;
13868;SDS011;7004;48.206;16.402;2023-07-02T09:42:38;3.17;;;2.97;;
13868;SDS011;7004;48.206;16.402;2023-07-02T09:45:07;2.90;;;2.70;;
13868;SDS011;7004;48.206;16.402;2023-07-02T09:47:37;3.03;;;2.83;;
13868;SDS011;7004;48.206;16.402;2023-07-02T09:50:12;3.30;;;3.00;;
13868;SDS011;7004;48.206;16.402;2023-07-02T09:52:41;3.30;;;3.00;;
13868;SDS011;7004;48.206;16.402;2023-07-02T09:55:09;3.37;;;3.07;;
13868;SDS011;7004;48.206;16.402;2023-07-02T09:57:35;3.47;;;3.17;;
13868;SDS011;7004;48.206;16.402;2023-07-02T10:00:02;2.93;;;2.63;;
13868;SDS011;7004;48.206;16.402;2023-07-02T10:02:29;3.13;;;2.83;;
13868;SDS011;7004;48.206;16.402;2023-07-02T10:04:55;2.93;;;2.73;;
13868;SDS011;7004;48.206;16.402;2023-07-02T10:07:26;3.83;;;3.00;;
13868;SDS011;7004;48.206;16.402;2023-07-02T10:09:54;3.10;;;2.80;;
13868;SDS011;7004;48.206;16.402;2023-07-02T10:12:24;3.50;;;3.20;;
13868;SDS011;7004;48.206;16.402;2023-07-02T10:14:53;3.17;;;2.87;;
13868;SDS011;7004;48.206;16.402;2023-07-02T10:17:25;3.43;;;2.80;;
13868;SDS011;7004;48.206;16.402;2023-07-02T10:19:57;2.83;;;2.60;;
13868;SDS011;7004;48.206;16.402;2023-07-02T10:22:46;2.93;;;2.70;;
13868;SDS011;7004;48.206;16.402;2023-07-02T10:25:25;3.27;;;2.97;;
13868;SDS011;7004;48.206;16.402;2023-07-02T10:27:56;3.00;;;2.70;;
13868;SDS011;7004;48.206;16.402;2023-07-02T10:30:57;3.73;;;3.10;;
13868;SDS011;7004;48.206;16.402;2023-07-02T10:33:17;3.40;;;3.10;;
13868;SDS011;7004;48.206;16.402;2023-07-02T10:35:46;2.67;;;2.47;;
13868;SDS011;7004;48.206;16.402;2023-07-02T10:38:14;2.97;;;2.67;;
13868;SDS011;7004;48.206;16.402;2023-07-02T10:40:44;2.70;;;2.50;;
13868;SDS011;7004;48.206;16.402;2023-07-02T10:43:10;2.73;;;2.47;;
13868;SDS011;7004;48.206;16.402;2023-07-02T10:45:36;4.40;;;2.60;;
13868;SDS011;7004;48.206;16.402;2023-07-02T10:48:03;3.20;;;2.90;;
13868;SDS011;7004;48.206;16.402;2023-07-02T10:50:39;3.00;;;2.80;;
13868;SDS011;7004;48.206;16.402;2023-07-02T10:53:05;3.23;;;2.70;;
13868;SDS011;7004;48.206;16.402;2023-07-02T10:55:31;3.10;;;2.80;;
13868;SDS011;7004;48.206;16.402;2023-07-02T10:58:05;3.27;;;2.80;;
13868;SDS011;7004;48.206;16.402;2023-07-02T11:00:33;3.30;;;3.00;;
13868;SDS011;7004;48.206;16.402;2023-07-02T11:03:23;2.63;;;2.43;;
13868;SDS011;7004;48.206;16.402;2023-07-02T11:05:51;3.40;;;2.57;;
13868;SDS011;7004;48.206;16.402;2023-07-02T11:08:19;3.37;;;2.93;;
13868;SDS011;7004;48.206;16.402;2023-07-02T11:10:50;2.77;;;2.50;;
13868;SDS011;7004;48.206;16.402;2023-07-02T11:13:17;3.07;;;2.77;;
13868;SDS011;7004;48.206;16.402;2023-07-02T11:15:46;5.70;;;2.77;;
13868;SDS011;7004;48.206;16.402;2023-07-02T11:18:13;2.97;;;2.67;;
13868;SDS011;7004;48.206;16.402;2023-07-02T11:20:44;3.37;;;3.07;;
13868;SDS011;7004;48.206;16.402;2023-07-02T11:23:20;2.80;;;2.60;;
13868;SDS011;7004;48.206;16.402;2023-07-02T11:26:02;3.03;;;2.77;;
13868;SDS011;7004;48.206;16.402;2023-07-02T11:28:29;3.43;;;2.87;;
13868;SDS011;7004;48.206;16.402;2023-07-02T11:30:57;3.50;;;3.20;;
13868;SDS011;7004;48.206;16.402;2023-07-02T11:33:37;3.40;;;3.10;;
13868;SDS011;7004;48.206;16.402;2023-07-02T11:36:05;2.80;;;2.60;;
13868;SDS011;7004;48.206;16.402;2023-07-02T11:38:34;2.80;;;2.60;;
13868;SDS011;7004;48.206;16.402;2023-07-02T11:41:04;3.13;;;2.93;;
13868;SDS011;7004;48.206;16.402;2023-07-02T11:43:32;3.33;;;2.80;;
13868;SDS011;7004;48.206;16.402;2023-07-02T11:45:59;3.20;;;2.90;;
13868;SDS011;7004;48.206;16.402;2023-07-02T11:48:25;2.90;;;2.60;;
13868;SDS011;7004;48.206;16.402;2023-07-02T11:50:51;3.10;;;2.77;;
13868;SDS011;7004;48.206;16.402;2023-07-02T11:53:18;3.70;;;3.00;;
13868;SDS011;7004;48.206;16.402;2023-07-02T11:55:43;3.20;;;2.90;;
13868;SDS011;7004;48.206;16.402;2023-07-02T11:58:10;3.00;;;2.70;;
13868;SDS011;7004;48.206;16.402;2023-07-02T12:00:36;2.80;;;2.60;;
13868;SDS011;7004;48.206;16.402;2023-07-02T12:03:02;2.80;;;2.60;;
13868;SDS011;7004;48.206;16.402;2023-07-02T12:05:28;3.00;;;2.77;;
13868;SDS011;7004;48.206;16.402;2023-07-02T12:07:54;3.33;;;2.60;;
13868;SDS011;7004;48.206;16.402;2023-07-02T12:10:20;2.70;;;2.50;;
13868;SDS011;7004;48.206;16.402;2023-07-02T12:12:46;2.80;;;2.60;;
13868;SDS011;7004;48.206;16.402;2023-07-02T12:15:12;3.50;;;2.70;;
13868;SDS011;7004;48.206;16.402;2023-07-02T12:17:38;3.10;;;2.80;;
13868;SDS011;7004;48.206;16.402;2023-07-02T12:20:04;2.53;;;2.33;;
13868;SDS011;7004;48.206;16.402;2023-07-02T12:22:31;3.00;;;2.57;;
13868;SDS011;7004;48.206;16.402;2023-07-02T12:24:57;3.23;;;2.93;;
13868;SDS011;7004;48.206;16.402;2023-07-02T12:27:23;3.43;;;2.73;;
13868;SDS011;7004;48.206;16.402;2023-07-02T12:29:52;2.93;;;2.63;;
13868;SDS011;7004;48.206;16.402;2023-07-02T12:32:18;3.47;;;2.53;;
13868;SDS011;7004;48.206;16.402;2023-07-02T12:34:44;3.53;;;3.00;;
13868;SDS011;7004;48.206;16.402;2023-07-02T12:37:10;2.57;;;2.37;;
13868;SDS011;7004;48.206;16.402;2023-07-02T12:39:39;2.83;;;2.30;;
13868;SDS011;7004;48.206;16.402;2023-07-02T12:42:05;2.90;;;2.53;;
13868;SDS011;7004;48.206;16.402;2023-07-02T12:44:31;2.60;;;2.40;;
13868;SDS011;7004;48.206;16.402;2023-07-02T12:46:58;3.10;;;2.80;;
13868;SDS011;7004;48.206;16.402;2023-07-02T12:49:24;3.07;;;2.30;;
13868;SDS011;7004;48.206;16.402;2023-07-02T12:51:50;2.90;;;2.70;;
13868;SDS011;7004;48.206;16.402;2023-07-02T12:54:16;2.67;;;2.47;;
13868;SDS011;7004;48.206;16.402;2023-07-02T12:56:42;2.53;;;2.33;;
13868;SDS011;7004;48.206;16.402;2023-07-02T12:59:08;2.50;;;2.30;;
13868;SDS011;7004;48.206;16.402;2023-07-02T13:01:34;2.90;;;2.70;;
13868;SDS011;7004;48.206;16.402;2023-07-02T13:04:02;3.10;;;2.47;;
13868;SDS011;7004;48.206;16.402;2023-07-02T13:06:29;2.50;;;2.30;;
13868;SDS011;7004;48.206;16.402;2023-07-02T13:08:59;3.77;;;2.60;;
13868;SDS011;7004;48.206;16.402;2023-07-02T13:11:26;2.50;;;2.30;;
13868;SDS011;7004;48.206;16.402;2023-07-02T13:13:52;2.60;;;2.40;;
13868;SDS011;7004;48.206;16.402;2023-07-02T13:16:18;2.43;;;2.23;;
13868;SDS011;7004;48.206;16.402;2023-07-02T13:18:46;2.70;;;2.50;;
13868;SDS011;7004;48.206;16.402;2023-07-02T13:21:13;2.60;;;2.40;;
13868;SDS011;7004;48.206;16.402;2023-07-02T13:23:40;2.60;;;2.40;;
13868;SDS011;7004;48.206;16.402;2023-07-02T13:26:06;2.33;;;2.10;;
13868;SDS011;7004;48.206;16.402;2023-07-02T13:28:33;2.70;;;2.30;;
13868;SDS011;7004;48.206;16.402;2023-07-02T13:30:59;2.50;;;2.20;;
13868;SDS011;7004;48.206;16.402;2023-07-02T13:33:26;2.27;;;2.07;;
13868;SDS011;7004;48.206;16.402;2023-07-02T13:35:54;2.10;;;1.90;;
13868;SDS011;7004;48.206;16.402;2023-07-02T13:38:21;2.23;;;2.10;;
13868;SDS011;7004;48.206;16.402;2023-07-02T13:40:47;2.33;;;2.13;;
13868;SDS011;7004;48.206;16.402;2023-07-02T13:43:14;2.37;;;2.17;;
13868;SDS011;7004;48.206;16.402;2023-07-02T13:45:40;3.63;;;2.20;;
13868;SDS011;7004;48.206;16.402;2023-07-02T13:48:07;2.23;;;2.10;;
13868;SDS011;7004;48.206;16.402;2023-07-02T13:50:33;2.00;;;1.90;;
13868;SDS011;7004;48.206;16.402;2023-07-02T13:53:00;2.30;;;2.10;;
13868;SDS011;7004;48.206;16.402;2023-07-02T13:55:27;2.90;;;2.13;;
13868;SDS011;7004;48.206;16.402;2023-07-02T13:57:54;2.23;;;2.03;;
13868;SDS011;7004;48.206;16.402;2023-07-02T14:00:28;2.50;;;1.90;;
13868;SDS011;7004;48.206;16.402;2023-07-02T14:02:55;1.90;;;1.80;;
13868;SDS011;7004;48.206;16.402;2023-07-02T14:05:22;1.97;;;1.80;;
13868;SDS011;7004;48.206;16.402;2023-07-02T14:07:48;1.80;;;1.70;;
13868;SDS011;7004;48.206;16.402;2023-07-02T14:10:17;1.50;;;1.40;;
13868;SDS011;7004;48.206;16.402;2023-07-02T14:12:44;3.67;;;1.90;;
13868;SDS011;7004;48.206;16.402;2023-07-02T14:15:11;2.30;;;1.90;;
13868;SDS011;7004;48.206;16.402;2023-07-02T14:17:38;2.10;;;1.70;;
13868;SDS011;7004;48.206;16.402;2023-07-02T14:20:06;2.70;;;1.90;;
13868;SDS011;7004;48.206;16.402;2023-07-02T14:22:34;1.70;;;1.60;;
13868;SDS011;7004;48.206;16.402;2023-07-02T14:25:01;2.00;;;1.80;;
13868;SDS011;7004;48.206;16.402;2023-07-02T14:27:28;2.47;;;1.90;;
13868;SDS011;7004;48.206;16.402;2023-07-02T14:29:55;2.00;;;1.80;;
13868;SDS011;7004;48.206;16.402;2023-07-02T14:32:22;1.90;;;1.80;;
13868;SDS011;7004;48.206;16.402;2023-07-02T14:34:49;1.90;;;1.80;;
13868;SDS011;7004;48.206;16.402;2023-07-02T14:37:17;2.27;;;2.07;;
13868;SDS011;7004;48.206;16.402;2023-07-02T14:39:43;3.70;;;2.00;;
13868;SDS011;7004;48.206;16.402;2023-07-02T14:42:09;2.37;;;2.17;;
13868;SDS011;7004;48.206;16.402;2023-07-02T14:44:36;2.60;;;2.40;;
13868;SDS011;7004;48.206;16.402;2023-07-02T14:47:03;2.63;;;2.10;;
13868;SDS011;7004;48.206;16.402;2023-07-02T14:49:31;3.77;;;2.13;;
13868;SDS011;7004;48.206;16.402;2023-07-02T14:51:57;2.43;;;2.10;;
13868;SDS011;7004;48.206;16.402;2023-07-02T14:54:23;2.33;;;1.83;;
13868;SDS011;7004;48.206;16.402;2023-07-02T14:56:49;2.57;;;2.37;;